Time;durP1;ratioP1;P1;durP2;ratioP2;P2;SDS_P1;SDS_P2;PMS_P1;PMS_P2;Temp;Humidity;BMP_temperature;BMP_pressure;BME280_temperature;BME280_humidity;BME280_pressure;Samples;Min_cycle;Max_cycle;Signal;HPM_P1;HPM_P2
2022/03/11 00:01:50;;;;;;;17.98;10.50;;;;;;;;;;5045907;28;20044;-62
2022/03/11 00:04:16;;;;;;;17.95;10.35;;;;;;;;;;5044805;28;20123;-62
2022/03/11 00:06:43;;;;;;;22.38;10.13;;;;;;;;;;5045524;28;20108;-62
2022/03/11 00:09:09;;;;;;;20.40;10.73;;;;;;;;;;5045537;28;20045;-62
2022/03/11 00:11:35;;;;;;;26.98;10.85;;;;;;;;;;5045420;28;20115;-62
2022/03/11 00:14:01;;;;;;;19.17;9.55;;;;;;;;;;5045327;28;20037;-62
2022/03/11 00:16:28;;;;;;;18.08;9.85;;;;;;;;;;5041320;28;20744;-62
2022/03/11 00:18:54;;;;;;;19.70;9.93;;;;;;;;;;5044748;28;20047;-62
2022/03/11 00:21:21;;;;;;;21.52;10.15;;;;;;;;;;5045041;28;20487;-62
2022/03/11 00:23:47;;;;;;;20.20;10.32;;;;;;;;;;5045404;28;20049;-62
2022/03/11 00:26:13;;;;;;;18.35;9.70;;;;;;;;;;5045128;28;20052;-62
2022/03/11 00:28:39;;;;;;;23.90;9.98;;;;;;;;;;5044770;28;20044;-62
2022/03/11 00:31:05;;;;;;;17.85;9.35;;;;;;;;;;5045211;28;20037;-62
2022/03/11 00:33:32;;;;;;;20.45;9.38;;;;;;;;;;5044776;28;20094;-62
2022/03/11 00:35:58;;;;;;;19.10;9.63;;;;;;;;;;5044158;28;20040;-63
2022/03/11 00:38:25;;;;;;;18.40;8.95;;;;;;;;;;5045209;28;20557;-63
2022/03/11 00:40:55;;;;;;;15.25;9.10;;;;;;;;;;5045222;28;20079;-63
2022/03/11 00:43:23;;;;;;;18.02;8.77;;;;;;;;;;5045294;28;20041;-63
2022/03/11 00:45:49;;;;;;;18.92;9.07;;;;;;;;;;5044137;28;20076;-63
2022/03/11 00:48:15;;;;;;;20.10;8.88;;;;;;;;;;5044502;28;20136;-63
2022/03/11 00:50:42;;;;;;;17.48;8.50;;;;;;;;;;5043796;28;20047;-63
2022/03/11 00:53:08;;;;;;;19.25;9.45;;;;;;;;;;5044886;28;20140;-63
2022/03/11 00:55:34;;;;;;;14.95;8.43;;;;;;;;;;5044192;28;20065;-62
2022/03/11 00:58:00;;;;;;;17.55;8.40;;;;;;;;;;5044213;28;20044;-62
2022/03/11 01:00:26;;;;;;;17.92;9.13;;;;;;;;;;5044541;28;20033;-63
2022/03/11 01:02:53;;;;;;;14.45;7.85;;;;;;;;;;5044756;28;20072;-63
2022/03/11 01:05:19;;;;;;;16.00;8.27;;;;;;;;;;5043967;28;20391;-62
2022/03/11 01:07:45;;;;;;;20.45;8.55;;;;;;;;;;5044481;28;20037;-62
2022/03/11 01:10:11;;;;;;;18.80;9.18;;;;;;;;;;5040535;28;20120;-62
2022/03/11 01:12:38;;;;;;;16.40;8.13;;;;;;;;;;5043630;28;20044;-62
2022/03/11 01:15:05;;;;;;;17.88;8.13;;;;;;;;;;5043717;28;20144;-62
2022/03/11 01:17:31;;;;;;;13.32;7.70;;;;;;;;;;5044293;28;20040;-62
2022/03/11 01:19:57;;;;;;;16.73;7.60;;;;;;;;;;5043471;28;20037;-63
2022/03/11 01:22:23;;;;;;;13.60;7.57;;;;;;;;;;5044665;28;20045;-62
2022/03/11 01:24:49;;;;;;;15.43;7.82;;;;;;;;;;5044104;28;20040;-63
2022/03/11 01:27:15;;;;;;;17.45;7.85;;;;;;;;;;5044338;28;20037;-62
2022/03/11 01:29:42;;;;;;;12.48;7.47;;;;;;;;;;5043862;28;20529;-63
2022/03/11 01:32:08;;;;;;;13.90;7.38;;;;;;;;;;5043814;28;20045;-63
2022/03/11 01:34:34;;;;;;;16.30;7.70;;;;;;;;;;5042995;28;20048;-62
2022/03/11 01:37:00;;;;;;;14.70;7.93;;;;;;;;;;5044239;28;20044;-63
2022/03/11 01:39:26;;;;;;;19.98;8.50;;;;;;;;;;5043859;28;20091;-63
2022/03/11 01:41:52;;;;;;;17.20;7.43;;;;;;;;;;5044460;28;20483;-63
2022/03/11 01:44:19;;;;;;;16.30;8.30;;;;;;;;;;5043760;28;20200;-63
2022/03/11 01:46:45;;;;;;;17.63;8.00;;;;;;;;;;5043730;28;20308;-62
2022/03/11 01:49:11;;;;;;;14.30;7.28;;;;;;;;;;5043166;28;20077;-63
2022/03/11 01:51:39;;;;;;;17.75;8.23;;;;;;;;;;5043585;28;20047;-63
2022/03/11 01:54:05;;;;;;;16.77;7.25;;;;;;;;;;5043914;28;20052;-63
2022/03/11 01:56:32;;;;;;;16.52;8.10;;;;;;;;;;5043743;28;20434;-63
2022/03/11 01:58:58;;;;;;;15.18;7.82;;;;;;;;;;5043824;28;20099;-63
2022/03/11 02:01:25;;;;;;;16.23;7.93;;;;;;;;;;5044333;28;20048;-62
2022/03/11 02:03:51;;;;;;;15.10;7.95;;;;;;;;;;5043565;28;20396;-63
2022/03/11 02:06:17;;;;;;;16.48;8.07;;;;;;;;;;5042363;28;20045;-63
2022/03/11 02:08:44;;;;;;;17.77;8.10;;;;;;;;;;5042886;28;20037;-63
2022/03/11 02:11:12;;;;;;;18.38;8.25;;;;;;;;;;5040860;23;20522;-62
2022/03/11 02:13:42;;;;;;;17.60;8.73;;;;;;;;;;5004702;28;20095;-62
2022/03/11 02:16:08;;;;;;;17.38;8.40;;;;;;;;;;5004948;28;20046;-62
2022/03/11 02:18:34;;;;;;;14.32;7.72;;;;;;;;;;5004052;28;20038;-63
2022/03/11 02:21:00;;;;;;;14.30;8.38;;;;;;;;;;5010985;28;20183;-62
2022/03/11 02:23:27;;;;;;;18.27;8.27;;;;;;;;;;5025879;28;20041;-62
2022/03/11 02:25:53;;;;;;;15.23;8.13;;;;;;;;;;5026921;28;20437;-63
2022/03/11 02:28:19;;;;;;;18.83;9.13;;;;;;;;;;5027177;28;20548;-62
2022/03/11 02:30:46;;;;;;;20.27;7.90;;;;;;;;;;5020868;28;20069;-62
2022/03/11 02:33:12;;;;;;;22.75;8.70;;;;;;;;;;5008630;28;20050;-62
2022/03/11 02:35:38;;;;;;;19.58;8.07;;;;;;;;;;5007757;28;20049;-62
2022/03/11 02:38:04;;;;;;;16.27;9.02;;;;;;;;;;5008625;28;20057;-62
2022/03/11 02:40:32;;;;;;;20.05;8.88;;;;;;;;;;5012964;28;20055;-62
2022/03/11 02:42:59;;;;;;;17.15;8.45;;;;;;;;;;5026573;28;20222;-62
2022/03/11 02:45:25;;;;;;;16.52;8.52;;;;;;;;;;5026816;28;20033;-62
2022/03/11 02:47:52;;;;;;;16.13;8.65;;;;;;;;;;5025613;28;20044;-62
2022/03/11 02:50:18;;;;;;;18.42;8.77;;;;;;;;;;5020966;28;20129;-62
2022/03/11 02:52:44;;;;;;;20.27;9.40;;;;;;;;;;5007976;28;20124;-62
2022/03/11 02:55:10;;;;;;;17.90;9.23;;;;;;;;;;4990514;28;20046;-63
2022/03/11 02:57:36;;;;;;;18.45;8.55;;;;;;;;;;5007743;28;20037;-62
2022/03/11 03:00:03;;;;;;;17.25;8.65;;;;;;;;;;5012372;28;20038;-63
2022/03/11 03:02:29;;;;;;;18.10;9.10;;;;;;;;;;5026017;28;20040;-63
2022/03/11 03:04:55;;;;;;;20.30;9.00;;;;;;;;;;5007848;28;20102;-62
2022/03/11 03:07:22;;;;;;;17.02;8.95;;;;;;;;;;5025523;28;20197;-63
2022/03/11 03:09:48;;;;;;;17.92;8.85;;;;;;;;;;5011479;28;20191;-63
2022/03/11 03:12:14;;;;;;;20.70;9.40;;;;;;;;;;5026215;28;20425;-63
2022/03/11 03:14:40;;;;;;;21.27;10.02;;;;;;;;;;5015643;28;20050;-63
2022/03/11 03:17:06;;;;;;;20.63;9.55;;;;;;;;;;5007756;28;20092;-63
2022/03/11 03:19:35;;;;;;;20.10;10.13;;;;;;;;;;5009963;28;20462;-63
2022/03/11 03:22:01;;;;;;;22.73;10.30;;;;;;;;;;4986662;28;20069;-63
2022/03/11 03:24:27;;;;;;;18.02;9.52;;;;;;;;;;5007322;28;20046;-63
2022/03/11 03:26:55;;;;;;;21.83;10.40;;;;;;;;;;5007739;28;20033;-63
2022/03/11 03:29:22;;;;;;;23.48;10.30;;;;;;;;;;5011394;28;20042;-63
2022/03/11 03:31:48;;;;;;;23.30;10.25;;;;;;;;;;5025600;28;20415;-63
2022/03/11 03:34:14;;;;;;;21.77;10.65;;;;;;;;;;5024627;28;20072;-62
2022/03/11 03:36:40;;;;;;;22.90;10.35;;;;;;;;;;5025470;28;20037;-62
2022/03/11 03:39:06;;;;;;;16.33;9.45;;;;;;;;;;5022707;28;20803;-62
2022/03/11 03:41:32;;;;;;;20.92;11.57;;;;;;;;;;5006745;28;20438;-62
2022/03/11 03:43:58;;;;;;;21.45;9.98;;;;;;;;;;5006830;28;20136;-62
2022/03/11 03:46:25;;;;;;;19.45;10.13;;;;;;;;;;5022792;28;20395;-62
2022/03/11 03:48:51;;;;;;;21.60;10.75;;;;;;;;;;5005381;28;20076;-62
2022/03/11 03:51:17;;;;;;;29.75;12.20;;;;;;;;;;5025723;28;20038;-62
2022/03/11 03:53:43;;;;;;;24.55;10.68;;;;;;;;;;5025372;28;20363;-62
2022/03/11 03:56:09;;;;;;;21.65;10.35;;;;;;;;;;5025309;28;20132;-63
2022/03/11 03:58:35;;;;;;;21.55;10.65;;;;;;;;;;5023077;28;20537;-62
2022/03/11 04:01:01;;;;;;;21.58;10.98;;;;;;;;;;4989030;28;20134;-63
2022/03/11 04:03:27;;;;;;;30.15;11.68;;;;;;;;;;5005919;28;20124;-63
2022/03/11 04:05:54;;;;;;;22.85;11.25;;;;;;;;;;5003152;28;20046;-62
2022/03/11 04:08:21;;;;;;;21.55;11.15;;;;;;;;;;5008005;28;20081;-62
2022/03/11 04:10:47;;;;;;;23.38;11.25;;;;;;;;;;5024669;28;20042;-63
2022/03/11 04:13:13;;;;;;;22.70;11.10;;;;;;;;;;5025264;28;20129;-62
2022/03/11 04:15:39;;;;;;;20.80;11.23;;;;;;;;;;5024409;28;20542;-62
2022/03/11 04:18:06;;;;;;;22.20;10.75;;;;;;;;;;5023830;28;20402;-63
2022/03/11 04:20:32;;;;;;;24.55;11.88;;;;;;;;;;5005633;28;20038;-63
2022/03/11 04:22:58;;;;;;;21.65;11.48;;;;;;;;;;5016870;28;20037;-62
2022/03/11 04:25:25;;;;;;;22.08;11.38;;;;;;;;;;5024913;28;20125;-62
2022/03/11 04:27:51;;;;;;;25.85;11.65;;;;;;;;;;5024607;28;20138;-62
2022/03/11 04:30:17;;;;;;;28.27;13.35;;;;;;;;;;5006231;28;20136;-62
2022/03/11 04:32:44;;;;;;;24.58;12.50;;;;;;;;;;5024186;28;20046;-63
2022/03/11 04:35:10;;;;;;;26.52;11.70;;;;;;;;;;5023821;28;20081;-63
2022/03/11 04:37:36;;;;;;;26.85;12.23;;;;;;;;;;5024400;28;20050;-62
2022/03/11 04:40:03;;;;;;;26.58;12.65;;;;;;;;;;5002572;28;20044;-62
2022/03/11 04:42:29;;;;;;;25.85;12.38;;;;;;;;;;5005938;28;20042;-62
2022/03/11 04:44:55;;;;;;;24.83;12.05;;;;;;;;;;5005744;28;20092;-62
2022/03/11 04:47:21;;;;;;;24.92;12.52;;;;;;;;;;5005648;28;20411;-62
2022/03/11 04:49:47;;;;;;;36.10;13.73;;;;;;;;;;5022889;28;20060;-63
2022/03/11 04:52:14;;;;;;;25.65;13.25;;;;;;;;;;5015066;28;20049;-63
2022/03/11 04:54:40;;;;;;;25.98;12.02;;;;;;;;;;5005652;28;20125;-63
2022/03/11 04:57:06;;;;;;;26.50;13.82;;;;;;;;;;5008648;28;20056;-63
2022/03/11 04:59:32;;;;;;;25.02;12.35;;;;;;;;;;5011903;28;20056;-63
2022/03/11 05:01:58;;;;;;;25.02;13.52;;;;;;;;;;5024207;28;20037;-62
2022/03/11 05:04:25;;;;;;;26.15;12.90;;;;;;;;;;5023750;28;20060;-63
2022/03/11 05:06:51;;;;;;;31.25;14.35;;;;;;;;;;5024596;28;20155;-63
2022/03/11 05:09:17;;;;;;;30.40;13.68;;;;;;;;;;5006382;28;20038;-63
2022/03/11 05:11:43;;;;;;;28.92;13.98;;;;;;;;;;4986572;28;20053;-63
2022/03/11 05:14:09;;;;;;;30.60;13.60;;;;;;;;;;5008151;28;20049;-63
2022/03/11 05:16:35;;;;;;;28.13;13.70;;;;;;;;;;5005042;28;20050;-63
2022/03/11 05:19:02;;;;;;;25.70;13.40;;;;;;;;;;5021382;28;20095;-63
2022/03/11 05:21:28;;;;;;;33.38;14.70;;;;;;;;;;5016759;28;20042;-63
2022/03/11 05:23:54;;;;;;;30.45;14.10;;;;;;;;;;5001497;28;20073;-63
2022/03/11 05:26:24;;;;;;;27.88;12.85;;;;;;;;;;5004971;28;20056;-62
2022/03/11 05:28:52;;;;;;;25.90;12.55;;;;;;;;;;4988375;28;20050;-63
2022/03/11 05:31:18;;;;;;;25.70;13.70;;;;;;;;;;5003044;28;20049;-63
2022/03/11 05:33:44;;;;;;;25.52;13.07;;;;;;;;;;5004036;28;20034;-63
2022/03/11 05:36:10;;;;;;;27.42;13.88;;;;;;;;;;5005974;28;20053;-63
2022/03/11 05:38:36;;;;;;;28.80;14.02;;;;;;;;;;5004654;28;20030;-63
2022/03/11 05:41:03;;;;;;;27.60;13.20;;;;;;;;;;5004753;28;20127;-63
2022/03/11 05:43:29;;;;;;;30.13;12.75;;;;;;;;;;5004777;28;20117;-63
2022/03/11 05:45:55;;;;;;;27.83;13.43;;;;;;;;;;5006673;28;20433;-63
2022/03/11 05:48:21;;;;;;;28.77;14.07;;;;;;;;;;5004037;28;20038;-63
2022/03/11 05:50:47;;;;;;;25.10;14.07;;;;;;;;;;5002555;28;20816;-63
2022/03/11 05:53:13;;;;;;;32.55;14.18;;;;;;;;;;5005346;28;20038;-62
2022/03/11 05:55:39;;;;;;;28.95;15.13;;;;;;;;;;5004830;28;20081;-63
2022/03/11 05:58:06;;;;;;;35.90;15.48;;;;;;;;;;5023155;28;20045;-63
2022/03/11 06:00:32;;;;;;;29.30;14.23;;;;;;;;;;5023893;28;20413;-62
2022/03/11 06:02:59;;;;;;;29.73;14.10;;;;;;;;;;5007755;28;20130;-61
2022/03/11 06:05:25;;;;;;;30.23;13.68;;;;;;;;;;5009062;28;20402;-62
2022/03/11 06:07:51;;;;;;;30.00;14.30;;;;;;;;;;5024693;28;20073;-63
2022/03/11 06:10:17;;;;;;;29.90;13.77;;;;;;;;;;5027475;28;20506;-63
2022/03/11 06:12:43;;;;;;;29.77;13.38;;;;;;;;;;5026550;28;20515;-63
2022/03/11 06:15:11;;;;;;;34.38;14.75;;;;;;;;;;5025029;28;20049;-63
2022/03/11 06:17:37;;;;;;;30.58;14.35;;;;;;;;;;5008004;28;20116;-63
2022/03/11 06:20:05;;;;;;;36.63;14.45;;;;;;;;;;5007798;28;20069;-63
2022/03/11 06:22:31;;;;;;;30.75;14.25;;;;;;;;;;5006947;28;20492;-63
2022/03/11 06:24:59;;;;;;;30.27;13.52;;;;;;;;;;5012145;28;20124;-63
2022/03/11 06:27:25;;;;;;;32.42;14.65;;;;;;;;;;5008766;28;20069;-64
2022/03/11 06:29:52;;;;;;;30.58;14.45;;;;;;;;;;5008645;28;20046;-62
2022/03/11 06:32:18;;;;;;;31.15;12.70;;;;;;;;;;5008664;28;20038;-63
2022/03/11 06:34:44;;;;;;;26.85;13.95;;;;;;;;;;5015347;28;20827;-63
2022/03/11 06:37:11;;;;;;;29.05;13.13;;;;;;;;;;5008449;28;20042;-63
2022/03/11 06:39:37;;;;;;;29.23;14.38;;;;;;;;;;5007073;28;20049;-63
2022/03/11 06:42:03;;;;;;;29.85;14.77;;;;;;;;;;4990209;28;20073;-64
2022/03/11 06:44:29;;;;;;;27.65;14.75;;;;;;;;;;5007472;28;20049;-63
2022/03/11 06:46:55;;;;;;;30.02;14.55;;;;;;;;;;5007289;28;20568;-63
2022/03/11 06:49:21;;;;;;;32.53;14.93;;;;;;;;;;5007433;28;20092;-63
2022/03/11 06:51:48;;;;;;;29.25;13.50;;;;;;;;;;5003761;28;20041;-63
2022/03/11 06:54:14;;;;;;;30.02;13.30;;;;;;;;;;5009055;28;20464;-63
2022/03/11 06:56:40;;;;;;;34.40;14.50;;;;;;;;;;5007583;28;20033;-63
2022/03/11 06:59:06;;;;;;;31.52;13.70;;;;;;;;;;5007448;28;20433;-63
2022/03/11 07:01:33;;;;;;;28.77;13.52;;;;;;;;;;5007521;28;20442;-61
2022/03/11 07:04:01;;;;;;;28.90;14.38;;;;;;;;;;5008971;28;20422;-62
2022/03/11 07:06:27;;;;;;;33.65;14.43;;;;;;;;;;5010468;28;20504;-62
2022/03/11 07:08:53;;;;;;;30.13;13.90;;;;;;;;;;5010971;28;20077;-63
2022/03/11 07:11:20;;;;;;;38.38;14.90;;;;;;;;;;5006985;28;20054;-62
2022/03/11 07:13:46;;;;;;;31.33;14.00;;;;;;;;;;5008317;28;20532;-63
2022/03/11 07:16:13;;;;;;;36.83;16.35;;;;;;;;;;5025845;28;20041;-63
2022/03/11 07:18:39;;;;;;;29.92;13.63;;;;;;;;;;5025123;28;20049;-63
2022/03/11 07:21:05;;;;;;;35.78;14.50;;;;;;;;;;5026040;28;20045;-63
2022/03/11 07:23:31;;;;;;;31.00;14.23;;;;;;;;;;5024114;28;20398;-63
2022/03/11 07:25:58;;;;;;;28.90;13.48;;;;;;;;;;5007675;28;20048;-63
2022/03/11 07:28:27;;;;;;;27.38;14.40;;;;;;;;;;5007581;28;20062;-63
2022/03/11 07:30:53;;;;;;;29.25;14.02;;;;;;;;;;5025725;28;20053;-63
2022/03/11 07:33:19;;;;;;;32.38;14.60;;;;;;;;;;5023397;28;20048;-63
2022/03/11 07:35:45;;;;;;;30.00;13.63;;;;;;;;;;5006940;28;20050;-63
2022/03/11 07:38:12;;;;;;;27.15;13.82;;;;;;;;;;5007357;28;20147;-63
2022/03/11 07:40:38;;;;;;;28.92;13.90;;;;;;;;;;5006845;28;20030;-63
2022/03/11 07:43:06;;;;;;;29.83;14.70;;;;;;;;;;5007767;28;20081;-63
2022/03/11 07:45:32;;;;;;;32.47;14.93;;;;;;;;;;5024890;28;20596;-63
2022/03/11 07:47:58;;;;;;;28.85;14.85;;;;;;;;;;5024874;28;20300;-63
2022/03/11 07:50:24;;;;;;;27.00;13.60;;;;;;;;;;5002984;28;20048;-63
2022/03/11 07:52:50;;;;;;;31.67;14.02;;;;;;;;;;5008589;28;20038;-63
2022/03/11 07:55:17;;;;;;;29.60;15.32;;;;;;;;;;5025039;28;20103;-63
2022/03/11 07:57:43;;;;;;;30.15;14.32;;;;;;;;;;5025011;28;20041;-63
2022/03/11 08:00:09;;;;;;;28.70;14.18;;;;;;;;;;5025413;28;20116;-63
2022/03/11 08:02:36;;;;;;;29.42;14.27;;;;;;;;;;5023521;28;20038;-64
2022/03/11 08:05:03;;;;;;;32.55;13.43;;;;;;;;;;5006700;28;20927;-64
2022/03/11 08:07:29;;;;;;;27.70;13.70;;;;;;;;;;5012943;28;20037;-64
2022/03/11 08:09:55;;;;;;;34.15;13.63;;;;;;;;;;5024363;28;20483;-63
2022/03/11 08:12:22;;;;;;;30.80;13.68;;;;;;;;;;5024171;28;20056;-63
2022/03/11 08:14:48;;;;;;;24.88;13.18;;;;;;;;;;5006520;28;20052;-64
2022/03/11 08:17:15;;;;;;;28.73;13.55;;;;;;;;;;5002623;28;20546;-64
2022/03/11 08:19:41;;;;;;;28.98;14.40;;;;;;;;;;5006291;28;20052;-64
2022/03/11 08:22:08;;;;;;;28.83;13.52;;;;;;;;;;5006899;28;20049;-64
2022/03/11 08:24:34;;;;;;;27.67;14.18;;;;;;;;;;5024529;28;20041;-64
2022/03/11 08:27:01;;;;;;;32.08;14.23;;;;;;;;;;5024462;28;20092;-63
2022/03/11 08:29:32;;;;;;;27.83;14.02;;;;;;;;;;5024159;28;20444;-63
2022/03/11 08:31:59;;;;;;;26.67;13.32;;;;;;;;;;5023803;28;20041;-64
2022/03/11 08:34:25;;;;;;;29.67;14.40;;;;;;;;;;5005153;28;20037;-64
2022/03/11 08:36:51;;;;;;;28.77;13.73;;;;;;;;;;5002305;28;20068;-63
2022/03/11 08:39:17;;;;;;;28.60;13.95;;;;;;;;;;5006038;28;20045;-63
2022/03/11 08:41:43;;;;;;;28.35;13.20;;;;;;;;;;5003201;28;20087;-61
2022/03/11 08:44:09;;;;;;;29.50;13.50;;;;;;;;;;5024101;28;20140;-62
2022/03/11 08:46:38;;;;;;;28.77;13.57;;;;;;;;;;5024280;28;20036;-62
2022/03/11 08:49:06;;;;;;;30.98;14.35;;;;;;;;;;5023512;28;20053;-61
2022/03/11 08:51:33;;;;;;;29.98;14.75;;;;;;;;;;5007060;28;20069;-61
2022/03/11 08:53:59;;;;;;;31.52;14.00;;;;;;;;;;5002037;28;20480;-61
2022/03/11 08:56:25;;;;;;;27.70;12.95;;;;;;;;;;5005598;28;20046;-61
2022/03/11 08:58:51;;;;;;;26.75;13.20;;;;;;;;;;5021881;28;20045;-61
2022/03/11 09:01:18;;;;;;;31.45;13.52;;;;;;;;;;5023983;28;20506;-61
2022/03/11 09:03:44;;;;;;;31.45;14.15;;;;;;;;;;5005060;28;20103;-60
2022/03/11 09:06:11;;;;;;;29.02;14.20;;;;;;;;;;5005430;28;20053;-61
2022/03/11 09:08:37;;;;;;;31.88;14.68;;;;;;;;;;5013588;28;20128;-60
2022/03/11 09:11:03;;;;;;;29.58;15.05;;;;;;;;;;5024249;28;20052;-61
2022/03/11 09:13:29;;;;;;;30.90;14.50;;;;;;;;;;5005808;28;20091;-61
2022/03/11 09:15:55;;;;;;;26.02;14.32;;;;;;;;;;5005032;28;20044;-61
2022/03/11 09:18:21;;;;;;;44.13;15.02;;;;;;;;;;4987666;28;20037;-60
2022/03/11 09:20:48;;;;;;;31.63;13.57;;;;;;;;;;5005199;28;20237;-61
2022/03/11 09:23:14;;;;;;;32.92;14.38;;;;;;;;;;5022801;28;20045;-62
2022/03/11 09:25:40;;;;;;;29.38;13.95;;;;;;;;;;5023483;28;20501;-61
2022/03/11 09:28:07;;;;;;;26.52;14.57;;;;;;;;;;5024037;28;20063;-62
2022/03/11 09:30:33;;;;;;;28.05;14.50;;;;;;;;;;5001216;28;20129;-62
2022/03/11 09:32:59;;;;;;;30.02;13.48;;;;;;;;;;5020760;28;20092;-62
2022/03/11 09:35:25;;;;;;;28.92;13.90;;;;;;;;;;5010557;28;20048;-62
2022/03/11 09:37:52;;;;;;;29.45;14.20;;;;;;;;;;5005715;28;20061;-62
2022/03/11 09:40:18;;;;;;;30.13;14.88;;;;;;;;;;5005142;28;21963;-61
2022/03/11 09:42:45;;;;;;;30.80;14.88;;;;;;;;;;5019984;28;20079;-62
2022/03/11 09:45:12;;;;;;;32.78;14.10;;;;;;;;;;5023200;28;20049;-62
2022/03/11 09:47:39;;;;;;;32.03;14.55;;;;;;;;;;5022990;28;20103;-62
2022/03/11 09:50:06;;;;;;;28.55;13.60;;;;;;;;;;5023122;28;20096;-62
2022/03/11 09:52:33;;;;;;;26.77;13.60;;;;;;;;;;5006119;28;20076;-61
2022/03/11 09:55:00;;;;;;;29.48;14.32;;;;;;;;;;5003308;28;20042;-62
2022/03/11 09:57:27;;;;;;;26.80;14.10;;;;;;;;;;5005026;28;20120;-61
2022/03/11 09:59:53;;;;;;;31.77;13.45;;;;;;;;;;5005215;28;20057;-62
2022/03/11 10:02:19;;;;;;;29.92;14.85;;;;;;;;;;5020914;28;20522;-62
2022/03/11 10:04:47;;;;;;;33.88;15.30;;;;;;;;;;5005498;28;20119;-62
2022/03/11 10:07:23;;;;;;;29.92;14.27;;;;;;;;;;5023522;28;20698;-64
2022/03/11 10:09:50;;;;;;;33.45;14.93;;;;;;;;;;5023074;28;21524;-64
2022/03/11 10:12:22;;;;;;;28.30;14.55;;;;;;;;;;5015030;28;20088;-64
2022/03/11 10:14:55;;;;;;;30.60;15.57;;;;;;;;;;5005702;28;20061;-62
2022/03/11 10:17:21;;;;;;;29.13;14.23;;;;;;;;;;5022544;28;20483;-62
2022/03/11 10:20:00;;;;;;;32.40;15.30;;;;;;;;;;5022324;28;20041;-62
2022/03/11 10:22:27;;;;;;;26.15;13.27;;;;;;;;;;5004802;28;20034;-62
2022/03/11 10:24:53;;;;;;;28.20;14.45;;;;;;;;;;5005121;28;20052;-62
2022/03/11 10:27:23;;;;;;;33.85;15.48;;;;;;;;;;5005059;28;20110;-62
2022/03/11 10:29:49;;;;;;;30.95;14.93;;;;;;;;;;5020489;28;20053;-62
2022/03/11 10:32:21;;;;;;;27.85;15.43;;;;;;;;;;5004077;28;20133;-62
2022/03/11 10:34:47;;;;;;;33.83;15.05;;;;;;;;;;5004525;28;20125;-62
2022/03/11 10:37:14;;;;;;;30.45;14.65;;;;;;;;;;5004434;28;20070;-62
2022/03/11 10:39:41;;;;;;;31.08;14.93;;;;;;;;;;5007206;28;20057;-62
2022/03/11 10:42:15;;;;;;;31.65;14.82;;;;;;;;;;5023127;28;20073;-62
2022/03/11 10:44:58;;;;;;;32.70;15.70;;;;;;;;;;5023927;28;20117;-62
2022/03/11 10:47:26;;;;;;;27.42;13.70;;;;;;;;;;5025834;28;20045;-62
2022/03/11 10:49:53;;;;;;;28.70;15.50;;;;;;;;;;5019409;28;20073;-62
2022/03/11 10:52:30;;;;;;;33.28;15.35;;;;;;;;;;5008152;28;20046;-62
2022/03/11 10:54:56;;;;;;;30.83;14.32;;;;;;;;;;5008048;28;20056;-63
2022/03/11 10:57:33;;;;;;;29.65;14.57;;;;;;;;;;5007931;28;20438;-62
2022/03/11 11:00:16;;;;;;;32.90;13.95;;;;;;;;;;5015738;28;20120;-62
2022/03/11 11:02:43;;;;;;;29.17;14.80;;;;;;;;;;5012120;28;20443;-62
2022/03/11 11:05:10;;;;;;;26.67;14.10;;;;;;;;;;5007234;28;20068;-62
2022/03/11 11:07:37;;;;;;;32.53;14.85;;;;;;;;;;5007683;28;20042;-61
2022/03/11 11:10:03;;;;;;;29.42;15.23;;;;;;;;;;4990528;28;20107;-61
2022/03/11 11:12:29;;;;;;;29.73;15.10;;;;;;;;;;5024567;28;20049;-62
2022/03/11 11:14:56;;;;;;;33.10;15.15;;;;;;;;;;5025972;28;20045;-62
2022/03/11 11:17:22;;;;;;;31.05;15.43;;;;;;;;;;5026161;28;20128;-61
2022/03/11 11:19:50;;;;;;;30.27;15.57;;;;;;;;;;5016299;28;20060;-61
2022/03/11 11:22:16;;;;;;;30.90;15.07;;;;;;;;;;5007360;28;20046;-62
2022/03/11 11:24:43;;;;;;;29.88;14.25;;;;;;;;;;5007430;28;20041;-61
2022/03/11 11:27:10;;;;;;;29.02;14.90;;;;;;;;;;5007100;28;20100;-61
2022/03/11 11:29:36;;;;;;;24.88;13.40;;;;;;;;;;5015739;28;20041;-61
2022/03/11 11:32:06;;;;;;;26.50;13.82;;;;;;;;;;5025032;28;20052;-62
2022/03/11 11:34:34;;;;;;;24.33;13.77;;;;;;;;;;5025753;28;20068;-61
2022/03/11 11:37:01;;;;;;;30.10;14.65;;;;;;;;;;5005790;28;20084;-62
2022/03/11 11:39:35;;;;;;;26.90;12.95;;;;;;;;;;5015976;28;20034;-61
2022/03/11 11:42:06;;;;;;;26.58;13.45;;;;;;;;;;5006980;28;20053;-62
2022/03/11 11:44:34;;;;;;;24.50;14.25;;;;;;;;;;4988962;28;20038;-62
2022/03/11 11:47:07;;;;;;;27.45;13.50;;;;;;;;;;5006705;28;20125;-62
2022/03/11 11:49:40;;;;;;;29.13;13.85;;;;;;;;;;5017834;28;20068;-61
2022/03/11 11:52:08;;;;;;;28.27;12.02;;;;;;;;;;5025337;28;20411;-61
2022/03/11 11:54:36;;;;;;;24.23;13.50;;;;;;;;;;5024579;28;20048;-61
2022/03/11 11:57:02;;;;;;;27.83;13.40;;;;;;;;;;5023553;28;20045;-62
2022/03/11 11:59:32;;;;;;;24.35;12.98;;;;;;;;;;5018181;28;20037;-62
2022/03/11 12:01:59;;;;;;;26.35;13.88;;;;;;;;;;5024463;28;20060;-62
2022/03/11 12:04:28;;;;;;;25.27;12.13;;;;;;;;;;5024377;28;20041;-61
2022/03/11 12:06:55;;;;;;;26.83;12.95;;;;;;;;;;5024972;28;20037;-62
2022/03/11 12:09:40;;;;;;;28.73;12.75;;;;;;;;;;5014811;28;20053;-62
2022/03/11 12:12:09;;;;;;;25.60;12.68;;;;;;;;;;5007412;28;20056;-63
2022/03/11 12:14:54;;;;;;;24.17;13.48;;;;;;;;;;5007870;28;20046;-63
2022/03/11 12:17:36;;;;;;;27.77;13.15;;;;;;;;;;5004531;28;21082;-62
2022/03/11 12:20:21;;;;;;;28.08;14.13;;;;;;;;;;5005944;28;20053;-62
2022/03/11 12:22:52;;;;;;;27.67;14.23;;;;;;;;;;4988579;28;20062;-62
2022/03/11 12:25:21;;;;;;;27.13;13.88;;;;;;;;;;5006754;28;20152;-62
2022/03/11 12:28:01;;;;;;;30.77;13.05;;;;;;;;;;5008083;28;20069;-62
2022/03/11 12:30:28;;;;;;;23.08;12.90;;;;;;;;;;5004952;28;20120;-63
2022/03/11 12:32:55;;;;;;;28.67;14.52;;;;;;;;;;5005443;28;20049;-62
2022/03/11 12:35:23;;;;;;;27.23;13.48;;;;;;;;;;5007700;28;20037;-63
2022/03/11 12:37:49;;;;;;;25.20;13.00;;;;;;;;;;5007775;28;20559;-62
2022/03/11 12:40:15;;;;;;;23.25;12.55;;;;;;;;;;5004812;28;20161;-63
2022/03/11 12:42:42;;;;;;;25.13;13.40;;;;;;;;;;5004211;28;20033;-63
2022/03/11 12:45:11;;;;;;;30.48;13.68;;;;;;;;;;5004719;28;20044;-63
2022/03/11 12:47:39;;;;;;;33.28;13.57;;;;;;;;;;5004140;28;20045;-63
2022/03/11 12:50:07;;;;;;;31.63;13.18;;;;;;;;;;5007566;28;20053;-63
2022/03/11 12:52:37;;;;;;;22.88;13.32;;;;;;;;;;5004924;28;20052;-63
2022/03/11 12:55:20;;;;;;;31.90;13.82;;;;;;;;;;5010319;28;20045;-63
2022/03/11 12:57:49;;;;;;;23.30;12.27;;;;;;;;;;5023942;28;20064;-63
2022/03/11 13:00:19;;;;;;;21.38;11.80;;;;;;;;;;5004505;28;20522;-63
2022/03/11 13:02:46;;;;;;;27.95;13.25;;;;;;;;;;5004823;28;20129;-63
2022/03/11 13:05:31;;;;;;;28.00;12.90;;;;;;;;;;5013117;28;20133;-62
2022/03/11 13:08:02;;;;;;;23.85;12.82;;;;;;;;;;5022891;28;20116;-63
2022/03/11 13:10:28;;;;;;;24.95;13.07;;;;;;;;;;5023376;28;20041;-63
2022/03/11 13:12:55;;;;;;;26.70;13.27;;;;;;;;;;5024008;28;20049;-63
2022/03/11 13:15:23;;;;;;;21.70;12.45;;;;;;;;;;5013856;28;20495;-63
2022/03/11 13:18:00;;;;;;;22.23;12.13;;;;;;;;;;5006080;28;20099;-63
2022/03/11 13:20:28;;;;;;;25.45;12.80;;;;;;;;;;5019268;28;20496;-63
2022/03/11 13:22:54;;;;;;;28.48;12.52;;;;;;;;;;5024028;28;20490;-61
2022/03/11 13:25:24;;;;;;;24.33;12.75;;;;;;;;;;5012149;28;20075;-63
2022/03/11 13:27:51;;;;;;;24.77;13.50;;;;;;;;;;5005490;28;20080;-63
2022/03/11 13:30:28;;;;;;;26.27;12.13;;;;;;;;;;5005355;28;20061;-63
2022/03/11 13:32:54;;;;;;;26.42;13.05;;;;;;;;;;5004300;28;20113;-63
2022/03/11 13:35:27;;;;;;;39.45;12.98;;;;;;;;;;5011624;28;20112;-63
2022/03/11 13:37:53;;;;;;;24.95;11.40;;;;;;;;;;5005657;28;20042;-63
2022/03/11 13:40:20;;;;;;;25.40;12.88;;;;;;;;;;5005446;28;20053;-67
2022/03/11 13:42:53;;;;;;;22.17;11.20;;;;;;;;;;5003001;28;20088;-64
2022/03/11 13:45:19;;;;;;;27.33;11.73;;;;;;;;;;5008951;28;20127;-63
2022/03/11 13:48:00;;;;;;;25.35;10.43;;;;;;;;;;5003234;28;20056;-64
2022/03/11 13:50:27;;;;;;;27.80;12.50;;;;;;;;;;5004289;28;20100;-64
2022/03/11 13:52:57;;;;;;;22.00;11.63;;;;;;;;;;5005664;28;20049;-64
2022/03/11 13:55:31;;;;;;;21.52;11.48;;;;;;;;;;5007581;28;20112;-64
2022/03/11 13:58:12;;;;;;;23.05;11.63;;;;;;;;;;5002308;28;20043;-64
2022/03/11 14:00:38;;;;;;;26.25;11.07;;;;;;;;;;5003822;28;20625;-64
2022/03/11 14:03:13;;;;;;;26.13;10.98;;;;;;;;;;5004298;28;20523;-64
2022/03/11 14:05:40;;;;;;;20.13;11.23;;;;;;;;;;5006003;28;20050;-64
2022/03/11 14:08:07;;;;;;;23.95;12.10;;;;;;;;;;5005922;28;20068;-64
2022/03/11 14:10:37;;;;;;;33.10;11.57;;;;;;;;;;5003957;28;20038;-63
2022/03/11 14:13:05;;;;;;;25.13;12.02;;;;;;;;;;5006649;28;20053;-64
2022/03/11 14:15:33;;;;;;;27.80;11.27;;;;;;;;;;5023090;28;20052;-64
2022/03/11 14:18:00;;;;;;;22.00;12.65;;;;;;;;;;5004356;28;20041;-64
2022/03/11 14:20:26;;;;;;;19.17;10.75;;;;;;;;;;5008493;28;20107;-64